sensor_id;sensor_type;location;lat;lon;timestamp;temperature;humidity
11511;DHT22;5812;48.864;9.190;2022-07-23T00:00:15;25.40;1.00
11511;DHT22;5812;48.864;9.190;2022-07-23T00:02:42;25.40;1.00
11511;DHT22;5812;48.864;9.190;2022-07-23T00:05:07;25.40;1.00
11511;DHT22;5812;48.864;9.190;2022-07-23T00:07:33;25.40;1.00
11511;DHT22;5812;48.864;9.190;2022-07-23T00:09:59;25.40;1.00
11511;DHT22;5812;48.864;9.190;2022-07-23T00:12:25;25.30;1.00
11511;DHT22;5812;48.864;9.190;2022-07-23T00:14:51;25.30;1.00
11511;DHT22;5812;48.864;9.190;2022-07-23T00:17:16;25.30;1.00
11511;DHT22;5812;48.864;9.190;2022-07-23T00:19:42;25.30;1.00
11511;DHT22;5812;48.864;9.190;2022-07-23T00:22:08;25.40;1.00
11511;DHT22;5812;48.864;9.190;2022-07-23T00:24:34;25.20;1.00
11511;DHT22;5812;48.864;9.190;2022-07-23T00:26:59;25.20;1.00
11511;DHT22;5812;48.864;9.190;2022-07-23T00:29:25;25.10;1.00
11511;DHT22;5812;48.864;9.190;2022-07-23T00:31:51;25.10;1.00
11511;DHT22;5812;48.864;9.190;2022-07-23T00:34:16;25.10;1.00
11511;DHT22;5812;48.864;9.190;2022-07-23T00:36:42;25.20;1.00
11511;DHT22;5812;48.864;9.190;2022-07-23T00:39:07;25.20;1.00
11511;DHT22;5812;48.864;9.190;2022-07-23T00:41:33;25.20;1.00
11511;DHT22;5812;48.864;9.190;2022-07-23T00:44:22;25.10;1.00
11511;DHT22;5812;48.864;9.190;2022-07-23T00:46:50;25.10;1.00
11511;DHT22;5812;48.864;9.190;2022-07-23T00:49:25;25.10;1.00
11511;DHT22;5812;48.864;9.190;2022-07-23T00:51:51;25.00;1.00
11511;DHT22;5812;48.864;9.190;2022-07-23T00:54:18;24.80;1.00
11511;DHT22;5812;48.864;9.190;2022-07-23T00:56:44;24.80;1.00
11511;DHT22;5812;48.864;9.190;2022-07-23T00:59:10;24.80;1.00
11511;DHT22;5812;48.864;9.190;2022-07-23T01:01:36;24.70;1.00
11511;DHT22;5812;48.864;9.190;2022-07-23T01:04:02;24.60;1.00
11511;DHT22;5812;48.864;9.190;2022-07-23T01:06:28;24.60;1.00
11511;DHT22;5812;48.864;9.190;2022-07-23T01:08:55;24.50;1.00
11511;DHT22;5812;48.864;9.190;2022-07-23T01:11:22;24.40;1.00
11511;DHT22;5812;48.864;9.190;2022-07-23T01:13:48;24.50;1.00
11511;DHT22;5812;48.864;9.190;2022-07-23T01:16:14;24.50;1.00
11511;DHT22;5812;48.864;9.190;2022-07-23T01:18:39;24.50;1.00
11511;DHT22;5812;48.864;9.190;2022-07-23T01:21:05;24.50;1.00
11511;DHT22;5812;48.864;9.190;2022-07-23T01:23:31;24.50;1.00
11511;DHT22;5812;48.864;9.190;2022-07-23T01:25:56;24.50;1.00
11511;DHT22;5812;48.864;9.190;2022-07-23T01:28:22;24.50;1.00
11511;DHT22;5812;48.864;9.190;2022-07-23T01:30:48;24.40;1.00
11511;DHT22;5812;48.864;9.190;2022-07-23T01:33:14;24.40;1.00
11511;DHT22;5812;48.864;9.190;2022-07-23T01:35:40;24.30;1.00
11511;DHT22;5812;48.864;9.190;2022-07-23T01:38:06;24.40;1.00
11511;DHT22;5812;48.864;9.190;2022-07-23T01:40:31;24.20;1.00
11511;DHT22;5812;48.864;9.190;2022-07-23T01:42:57;24.30;1.00
11511;DHT22;5812;48.864;9.190;2022-07-23T01:45:22;24.20;1.00
11511;DHT22;5812;48.864;9.190;2022-07-23T01:47:48;24.20;1.00
11511;DHT22;5812;48.864;9.190;2022-07-23T01:50:14;24.20;1.00
11511;DHT22;5812;48.864;9.190;2022-07-23T01:52:39;24.20;1.00
11511;DHT22;5812;48.864;9.190;2022-07-23T01:55:06;24.00;1.00
11511;DHT22;5812;48.864;9.190;2022-07-23T01:57:32;24.00;1.00
11511;DHT22;5812;48.864;9.190;2022-07-23T01:59:58;24.00;1.00
11511;DHT22;5812;48.864;9.190;2022-07-23T02:02:23;23.80;1.00
11511;DHT22;5812;48.864;9.190;2022-07-23T02:04:49;23.70;1.00
11511;DHT22;5812;48.864;9.190;2022-07-23T02:07:15;23.60;1.00
11511;DHT22;5812;48.864;9.190;2022-07-23T02:09:40;23.50;6.10
11511;DHT22;5812;48.864;9.190;2022-07-23T02:12:06;23.40;10.20
11511;DHT22;5812;48.864;9.190;2022-07-23T02:14:32;23.30;9.20
11511;DHT22;5812;48.864;9.190;2022-07-23T02:16:58;23.30;6.30
11511;DHT22;5812;48.864;9.190;2022-07-23T02:19:24;23.40;7.00
11511;DHT22;5812;48.864;9.190;2022-07-23T02:21:49;23.30;9.20
11511;DHT22;5812;48.864;9.190;2022-07-23T02:24:15;23.20;17.20
11511;DHT22;5812;48.864;9.190;2022-07-23T02:26:41;23.00;31.40
11511;DHT22;5812;48.864;9.190;2022-07-23T02:29:07;23.00;27.90
11511;DHT22;5812;48.864;9.190;2022-07-23T02:31:33;23.10;37.20
11511;DHT22;5812;48.864;9.190;2022-07-23T02:33:59;23.30;24.50
11511;DHT22;5812;48.864;9.190;2022-07-23T02:36:25;23.10;30.20
11511;DHT22;5812;48.864;9.190;2022-07-23T02:38:50;22.90;49.00
11511;DHT22;5812;48.864;9.190;2022-07-23T02:41:16;22.70;82.80
11511;DHT22;5812;48.864;9.190;2022-07-23T02:43:42;22.60;77.20
11511;DHT22;5812;48.864;9.190;2022-07-23T02:46:07;22.60;78.10
11511;DHT22;5812;48.864;9.190;2022-07-23T02:48:33;22.90;53.20
11511;DHT22;5812;48.864;9.190;2022-07-23T02:50:59;22.90;51.30
11511;DHT22;5812;48.864;9.190;2022-07-23T02:53:25;23.00;44.50
11511;DHT22;5812;48.864;9.190;2022-07-23T02:55:50;23.00;42.50
11511;DHT22;5812;48.864;9.190;2022-07-23T02:58:16;23.00;38.70
11511;DHT22;5812;48.864;9.190;2022-07-23T03:00:41;23.00;40.60
11511;DHT22;5812;48.864;9.190;2022-07-23T03:03:07;22.90;40.60
11511;DHT22;5812;48.864;9.190;2022-07-23T03:05:34;22.90;82.20
11511;DHT22;5812;48.864;9.190;2022-07-23T03:07:59;22.70;96.60
11511;DHT22;5812;48.864;9.190;2022-07-23T03:10:25;22.80;79.40
11511;DHT22;5812;48.864;9.190;2022-07-23T03:12:50;22.90;53.10
11511;DHT22;5812;48.864;9.190;2022-07-23T03:15:16;22.90;46.90
11511;DHT22;5812;48.864;9.190;2022-07-23T03:17:42;22.90;41.20
11511;DHT22;5812;48.864;9.190;2022-07-23T03:20:08;22.90;42.40
11511;DHT22;5812;48.864;9.190;2022-07-23T03:22:34;22.80;44.80
11511;DHT22;5812;48.864;9.190;2022-07-23T03:24:59;22.90;47.90
11511;DHT22;5812;48.864;9.190;2022-07-23T03:27:27;23.00;38.50
11511;DHT22;5812;48.864;9.190;2022-07-23T03:29:55;22.90;47.60
11511;DHT22;5812;48.864;9.190;2022-07-23T03:32:21;22.90;52.10
11511;DHT22;5812;48.864;9.190;2022-07-23T03:34:47;22.80;66.50
11511;DHT22;5812;48.864;9.190;2022-07-23T03:37:13;22.60;73.40
11511;DHT22;5812;48.864;9.190;2022-07-23T03:39:39;22.40;92.30
11511;DHT22;5812;48.864;9.190;2022-07-23T03:42:05;22.40;96.50
11511;DHT22;5812;48.864;9.190;2022-07-23T03:44:31;22.50;96.40
11511;DHT22;5812;48.864;9.190;2022-07-23T03:46:56;22.60;94.50
11511;DHT22;5812;48.864;9.190;2022-07-23T03:49:22;22.50;93.60
11511;DHT22;5812;48.864;9.190;2022-07-23T03:51:48;22.70;85.90
11511;DHT22;5812;48.864;9.190;2022-07-23T03:54:14;22.80;76.40
11511;DHT22;5812;48.864;9.190;2022-07-23T03:56:39;22.80;79.90
11511;DHT22;5812;48.864;9.190;2022-07-23T03:59:05;22.70;81.20
11511;DHT22;5812;48.864;9.190;2022-07-23T04:01:31;22.70;88.00
11511;DHT22;5812;48.864;9.190;2022-07-23T04:03:56;22.50;99.90
11511;DHT22;5812;48.864;9.190;2022-07-23T04:06:22;22.40;99.90
11511;DHT22;5812;48.864;9.190;2022-07-23T04:08:47;22.40;99.90
11511;DHT22;5812;48.864;9.190;2022-07-23T04:11:13;22.40;99.90
11511;DHT22;5812;48.864;9.190;2022-07-23T04:13:39;22.20;99.90
11511;DHT22;5812;48.864;9.190;2022-07-23T04:16:05;22.20;99.90
11511;DHT22;5812;48.864;9.190;2022-07-23T04:18:31;22.10;99.90
11511;DHT22;5812;48.864;9.190;2022-07-23T04:20:57;22.30;99.90
11511;DHT22;5812;48.864;9.190;2022-07-23T04:23:22;22.20;99.90
11511;DHT22;5812;48.864;9.190;2022-07-23T04:25:48;22.20;99.90
11511;DHT22;5812;48.864;9.190;2022-07-23T04:28:14;22.40;99.90
11511;DHT22;5812;48.864;9.190;2022-07-23T04:30:43;22.50;99.90
11511;DHT22;5812;48.864;9.190;2022-07-23T04:33:08;22.40;99.90
11511;DHT22;5812;48.864;9.190;2022-07-23T04:35:35;22.50;99.90
11511;DHT22;5812;48.864;9.190;2022-07-23T04:38:01;22.70;95.30
11511;DHT22;5812;48.864;9.190;2022-07-23T04:40:27;22.70;94.60
11511;DHT22;5812;48.864;9.190;2022-07-23T04:42:53;22.70;99.90
11511;DHT22;5812;48.864;9.190;2022-07-23T04:45:18;22.90;90.40
11511;DHT22;5812;48.864;9.190;2022-07-23T04:47:44;23.00;75.20
11511;DHT22;5812;48.864;9.190;2022-07-23T04:50:10;23.00;74.30
11511;DHT22;5812;48.864;9.190;2022-07-23T04:52:35;22.90;90.40
11511;DHT22;5812;48.864;9.190;2022-07-23T04:55:01;23.20;66.10
11511;DHT22;5812;48.864;9.190;2022-07-23T04:57:27;23.10;61.50
11511;DHT22;5812;48.864;9.190;2022-07-23T04:59:53;23.00;74.30
11511;DHT22;5812;48.864;9.190;2022-07-23T05:02:19;23.20;81.00
11511;DHT22;5812;48.864;9.190;2022-07-23T05:04:44;23.30;91.20
11511;DHT22;5812;48.864;9.190;2022-07-23T05:07:10;23.20;68.00
11511;DHT22;5812;48.864;9.190;2022-07-23T05:09:35;23.40;81.50
11511;DHT22;5812;48.864;9.190;2022-07-23T05:12:01;23.40;84.70
11511;DHT22;5812;48.864;9.190;2022-07-23T05:14:27;23.50;88.70
11511;DHT22;5812;48.864;9.190;2022-07-23T05:16:53;23.40;99.90
11511;DHT22;5812;48.864;9.190;2022-07-23T05:19:19;23.50;86.80
11511;DHT22;5812;48.864;9.190;2022-07-23T05:21:45;23.90;84.10
11511;DHT22;5812;48.864;9.190;2022-07-23T05:24:10;24.10;91.90
11511;DHT22;5812;48.864;9.190;2022-07-23T05:26:36;24.20;60.20
11511;DHT22;5812;48.864;9.190;2022-07-23T05:29:01;24.10;26.20
11511;DHT22;5812;48.864;9.190;2022-07-23T05:31:27;24.10;35.10
11511;DHT22;5812;48.864;9.190;2022-07-23T05:33:53;24.40;67.90
11511;DHT22;5812;48.864;9.190;2022-07-23T05:36:18;24.60;39.20
11511;DHT22;5812;48.864;9.190;2022-07-23T05:38:44;24.50;2.10
11511;DHT22;5812;48.864;9.190;2022-07-23T05:41:09;24.60;10.70
11511;DHT22;5812;48.864;9.190;2022-07-23T05:43:35;24.90;22.80
11511;DHT22;5812;48.864;9.190;2022-07-23T05:46:01;25.00;7.00
11511;DHT22;5812;48.864;9.190;2022-07-23T05:48:26;25.20;13.10
11511;DHT22;5812;48.864;9.190;2022-07-23T05:50:52;25.40;2.10
11511;DHT22;5812;48.864;9.190;2022-07-23T05:53:18;25.60;4.20
11511;DHT22;5812;48.864;9.190;2022-07-23T05:55:43;25.40;1.00
11511;DHT22;5812;48.864;9.190;2022-07-23T05:58:09;25.30;1.00
11511;DHT22;5812;48.864;9.190;2022-07-23T06:00:34;25.00;1.00
11511;DHT22;5812;48.864;9.190;2022-07-23T06:03:00;24.80;3.10
11511;DHT22;5812;48.864;9.190;2022-07-23T06:05:26;24.50;14.80
11511;DHT22;5812;48.864;9.190;2022-07-23T06:07:52;24.30;16.50
11511;DHT22;5812;48.864;9.190;2022-07-23T06:10:18;24.10;22.70
11511;DHT22;5812;48.864;9.190;2022-07-23T06:12:44;24.10;25.60
11511;DHT22;5812;48.864;9.190;2022-07-23T06:15:10;23.90;50.40
11511;DHT22;5812;48.864;9.190;2022-07-23T06:17:37;23.70;49.50
11511;DHT22;5812;48.864;9.190;2022-07-23T06:20:05;23.60;48.50
11511;DHT22;5812;48.864;9.190;2022-07-23T06:22:31;23.80;39.90
11511;DHT22;5812;48.864;9.190;2022-07-23T06:24:57;23.80;22.10
11511;DHT22;5812;48.864;9.190;2022-07-23T06:27:23;23.80;16.90
11511;DHT22;5812;48.864;9.190;2022-07-23T06:29:48;23.90;11.80
11511;DHT22;5812;48.864;9.190;2022-07-23T06:32:14;23.90;22.90
11511;DHT22;5812;48.864;9.190;2022-07-23T06:34:39;24.20;20.80
11511;DHT22;5812;48.864;9.190;2022-07-23T06:37:05;24.60;2.60
11511;DHT22;5812;48.864;9.190;2022-07-23T06:39:31;24.70;3.50
11511;DHT22;5812;48.864;9.190;2022-07-23T06:41:56;24.80;2.10
11511;DHT22;5812;48.864;9.190;2022-07-23T06:44:22;25.30;1.00
11511;DHT22;5812;48.864;9.190;2022-07-23T06:46:48;25.20;1.00
11511;DHT22;5812;48.864;9.190;2022-07-23T06:49:13;25.10;1.00
11511;DHT22;5812;48.864;9.190;2022-07-23T06:51:39;25.00;1.00
11511;DHT22;5812;48.864;9.190;2022-07-23T06:54:05;24.70;1.00
11511;DHT22;5812;48.864;9.190;2022-07-23T06:56:30;24.50;1.00
11511;DHT22;5812;48.864;9.190;2022-07-23T06:58:56;24.50;1.00
11511;DHT22;5812;48.864;9.190;2022-07-23T07:01:22;24.30;1.00
11511;DHT22;5812;48.864;9.190;2022-07-23T07:03:47;24.00;13.20
11511;DHT22;5812;48.864;9.190;2022-07-23T07:06:13;23.70;9.80
11511;DHT22;5812;48.864;9.190;2022-07-23T07:08:39;23.40;29.10
11511;DHT22;5812;48.864;9.190;2022-07-23T07:11:05;23.20;60.20
11511;DHT22;5812;48.864;9.190;2022-07-23T07:13:31;23.10;83.20
11511;DHT22;5812;48.864;9.190;2022-07-23T07:15:56;22.90;99.90
11511;DHT22;5812;48.864;9.190;2022-07-23T07:18:22;22.80;99.90
11511;DHT22;5812;48.864;9.190;2022-07-23T07:20:48;22.80;99.90
11511;DHT22;5812;48.864;9.190;2022-07-23T07:23:14;22.60;99.90
11511;DHT22;5812;48.864;9.190;2022-07-23T07:25:40;22.70;99.90
11511;DHT22;5812;48.864;9.190;2022-07-23T07:28:05;22.70;99.90
11511;DHT22;5812;48.864;9.190;2022-07-23T07:30:31;22.70;99.90
11511;DHT22;5812;48.864;9.190;2022-07-23T07:32:57;22.50;1.00
11511;DHT22;5812;48.864;9.190;2022-07-23T07:35:22;22.10;99.90
11511;DHT22;5812;48.864;9.190;2022-07-23T07:37:48;21.70;99.90
11511;DHT22;5812;48.864;9.190;2022-07-23T07:40:14;21.30;99.90
11511;DHT22;5812;48.864;9.190;2022-07-23T07:42:47;21.20;1.00
11511;DHT22;5812;48.864;9.190;2022-07-23T07:45:13;21.30;1.00
11511;DHT22;5812;48.864;9.190;2022-07-23T07:47:39;21.30;1.00
11511;DHT22;5812;48.864;9.190;2022-07-23T07:50:05;21.60;1.00
11511;DHT22;5812;48.864;9.190;2022-07-23T07:52:30;21.90;99.90
11511;DHT22;5812;48.864;9.190;2022-07-23T07:54:56;22.20;99.90
11511;DHT22;5812;48.864;9.190;2022-07-23T07:57:21;22.40;99.90
11511;DHT22;5812;48.864;9.190;2022-07-23T07:59:47;22.40;99.90
11511;DHT22;5812;48.864;9.190;2022-07-23T08:02:13;22.40;99.90
11511;DHT22;5812;48.864;9.190;2022-07-23T08:04:38;22.50;99.90
11511;DHT22;5812;48.864;9.190;2022-07-23T08:07:04;22.70;99.90
11511;DHT22;5812;48.864;9.190;2022-07-23T08:09:29;22.80;99.90
11511;DHT22;5812;48.864;9.190;2022-07-23T08:11:55;23.00;95.80
11511;DHT22;5812;48.864;9.190;2022-07-23T08:14:20;23.30;99.90
11511;DHT22;5812;48.864;9.190;2022-07-23T08:16:46;23.50;1.00
11511;DHT22;5812;48.864;9.190;2022-07-23T08:19:12;23.70;99.90
11511;DHT22;5812;48.864;9.190;2022-07-23T08:21:37;23.80;99.90
11511;DHT22;5812;48.864;9.190;2022-07-23T08:24:03;23.60;99.90
11511;DHT22;5812;48.864;9.190;2022-07-23T08:26:29;23.30;99.90
11511;DHT22;5812;48.864;9.190;2022-07-23T08:28:54;23.40;99.90
11511;DHT22;5812;48.864;9.190;2022-07-23T08:31:20;23.40;99.90
11511;DHT22;5812;48.864;9.190;2022-07-23T08:33:45;23.80;99.90
11511;DHT22;5812;48.864;9.190;2022-07-23T08:36:11;23.90;99.90
11511;DHT22;5812;48.864;9.190;2022-07-23T08:38:36;24.80;99.90
11511;DHT22;5812;48.864;9.190;2022-07-23T08:41:02;25.10;99.90
11511;DHT22;5812;48.864;9.190;2022-07-23T08:43:32;25.00;92.50
11511;DHT22;5812;48.864;9.190;2022-07-23T08:45:59;25.00;99.90
11511;DHT22;5812;48.864;9.190;2022-07-23T08:48:35;25.30;29.30
11511;DHT22;5812;48.864;9.190;2022-07-23T08:51:04;25.40;99.90
11511;DHT22;5812;48.864;9.190;2022-07-23T08:53:31;26.30;55.40
11511;DHT22;5812;48.864;9.190;2022-07-23T08:55:59;27.00;20.30
11511;DHT22;5812;48.864;9.190;2022-07-23T08:58:27;27.60;1.00
11511;DHT22;5812;48.864;9.190;2022-07-23T09:00:53;27.70;1.00
11511;DHT22;5812;48.864;9.190;2022-07-23T09:03:24;27.90;1.00
11511;DHT22;5812;48.864;9.190;2022-07-23T09:05:51;27.80;1.00
11511;DHT22;5812;48.864;9.190;2022-07-23T09:08:22;28.20;1.00
11511;DHT22;5812;48.864;9.190;2022-07-23T09:10:52;28.70;1.00
11511;DHT22;5812;48.864;9.190;2022-07-23T09:16:19;30.30;1.00
11511;DHT22;5812;48.864;9.190;2022-07-23T09:18:53;30.20;1.00
11511;DHT22;5812;48.864;9.190;2022-07-23T09:21:29;30.40;1.00
11511;DHT22;5812;48.864;9.190;2022-07-23T09:24:05;29.80;1.00
11511;DHT22;5812;48.864;9.190;2022-07-23T09:26:44;29.00;1.00
11511;DHT22;5812;48.864;9.190;2022-07-23T09:29:25;28.90;1.00
11511;DHT22;5812;48.864;9.190;2022-07-23T09:31:52;29.20;1.00
11511;DHT22;5812;48.864;9.190;2022-07-23T09:34:26;30.00;1.00
11511;DHT22;5812;48.864;9.190;2022-07-23T09:36:54;30.70;1.00
11511;DHT22;5812;48.864;9.190;2022-07-23T09:39:31;31.60;1.00
11511;DHT22;5812;48.864;9.190;2022-07-23T09:41:58;31.40;1.00
11511;DHT22;5812;48.864;9.190;2022-07-23T09:44:24;31.80;1.00
11511;DHT22;5812;48.864;9.190;2022-07-23T09:46:52;31.60;1.00
11511;DHT22;5812;48.864;9.190;2022-07-23T09:49:23;31.80;1.00
11511;DHT22;5812;48.864;9.190;2022-07-23T09:51:56;32.40;1.00
11511;DHT22;5812;48.864;9.190;2022-07-23T09:54:36;32.90;1.00
11511;DHT22;5812;48.864;9.190;2022-07-23T09:57:11;32.20;1.00
11511;DHT22;5812;48.864;9.190;2022-07-23T09:59:43;32.40;1.00
11511;DHT22;5812;48.864;9.190;2022-07-23T10:02:11;32.50;1.00
11511;DHT22;5812;48.864;9.190;2022-07-23T10:04:39;32.90;1.00
11511;DHT22;5812;48.864;9.190;2022-07-23T10:07:07;32.70;1.00
11511;DHT22;5812;48.864;9.190;2022-07-23T10:09:36;31.90;1.00
11511;DHT22;5812;48.864;9.190;2022-07-23T10:12:12;31.50;1.00
11511;DHT22;5812;48.864;9.190;2022-07-23T10:14:44;31.20;1.00
11511;DHT22;5812;48.864;9.190;2022-07-23T10:17:10;31.70;1.00
11511;DHT22;5812;48.864;9.190;2022-07-23T10:19:36;31.80;1.00
11511;DHT22;5812;48.864;9.190;2022-07-23T10:22:07;32.30;1.00
11511;DHT22;5812;48.864;9.190;2022-07-23T10:27:30;32.30;1.00
11511;DHT22;5812;48.864;9.190;2022-07-23T10:30:02;32.00;1.00
11511;DHT22;5812;48.864;9.190;2022-07-23T10:36:03;32.30;1.00
11511;DHT22;5812;48.864;9.190;2022-07-23T10:38:53;32.80;1.00
11511;DHT22;5812;48.864;9.190;2022-07-23T10:41:37;32.40;1.00
11511;DHT22;5812;48.864;9.190;2022-07-23T10:46:53;32.30;1.00
11511;DHT22;5812;48.864;9.190;2022-07-23T10:49:31;32.00;1.00
11511;DHT22;5812;48.864;9.190;2022-07-23T10:52:17;32.10;1.00
11511;DHT22;5812;48.864;9.190;2022-07-23T10:54:54;32.40;1.00
11511;DHT22;5812;48.864;9.190;2022-07-23T10:57:25;32.80;1.00
11511;DHT22;5812;48.864;9.190;2022-07-23T11:02:33;32.40;1.00
11511;DHT22;5812;48.864;9.190;2022-07-23T11:05:10;32.50;1.00
11511;DHT22;5812;48.864;9.190;2022-07-23T11:08:09;33.40;1.00
11511;DHT22;5812;48.864;9.190;2022-07-23T11:11:07;34.70;1.00
11511;DHT22;5812;48.864;9.190;2022-07-23T11:13:38;34.40;1.00
11511;DHT22;5812;48.864;9.190;2022-07-23T11:16:30;33.40;1.00
11511;DHT22;5812;48.864;9.190;2022-07-23T11:18:58;34.40;1.00
11511;DHT22;5812;48.864;9.190;2022-07-23T11:24:00;34.70;1.00
11511;DHT22;5812;48.864;9.190;2022-07-23T11:32:05;34.70;1.00
11511;DHT22;5812;48.864;9.190;2022-07-23T11:36:58;34.00;1.00
11511;DHT22;5812;48.864;9.190;2022-07-23T11:39:26;33.70;1.00
11511;DHT22;5812;48.864;9.190;2022-07-23T11:41:52;34.20;1.00
11511;DHT22;5812;48.864;9.190;2022-07-23T11:44:35;34.50;1.00
11511;DHT22;5812;48.864;9.190;2022-07-23T11:47:05;34.30;1.00
11511;DHT22;5812;48.864;9.190;2022-07-23T11:49:31;35.70;1.00
11511;DHT22;5812;48.864;9.190;2022-07-23T11:52:13;36.30;1.00
11511;DHT22;5812;48.864;9.190;2022-07-23T11:55:00;36.80;1.00
11511;DHT22;5812;48.864;9.190;2022-07-23T11:57:46;37.00;1.00
11511;DHT22;5812;48.864;9.190;2022-07-23T12:00:17;36.80;1.00
11511;DHT22;5812;48.864;9.190;2022-07-23T12:02:45;37.30;1.00
11511;DHT22;5812;48.864;9.190;2022-07-23T12:05:13;37.80;1.00
11511;DHT22;5812;48.864;9.190;2022-07-23T12:07:41;39.30;1.00
11511;DHT22;5812;48.864;9.190;2022-07-23T12:10:11;38.20;1.00
11511;DHT22;5812;48.864;9.190;2022-07-23T12:12:58;38.30;1.00
11511;DHT22;5812;48.864;9.190;2022-07-23T12:17:53;38.80;1.00
11511;DHT22;5812;48.864;9.190;2022-07-23T12:20:28;37.70;1.00
11511;DHT22;5812;48.864;9.190;2022-07-23T12:22:59;38.10;1.00
11511;DHT22;5812;48.864;9.190;2022-07-23T12:25:28;39.00;1.00
11511;DHT22;5812;48.864;9.190;2022-07-23T12:28:04;39.00;1.00
11511;DHT22;5812;48.864;9.190;2022-07-23T12:30:42;39.20;1.00
11511;DHT22;5812;48.864;9.190;2022-07-23T12:33:10;39.40;1.00
11511;DHT22;5812;48.864;9.190;2022-07-23T12:35:44;39.70;1.00
11511;DHT22;5812;48.864;9.190;2022-07-23T12:38:13;39.30;1.00
11511;DHT22;5812;48.864;9.190;2022-07-23T12:40:44;39.50;1.00
11511;DHT22;5812;48.864;9.190;2022-07-23T12:43:18;39.20;1.00
11511;DHT22;5812;48.864;9.190;2022-07-23T12:45:47;39.30;1.00
11511;DHT22;5812;48.864;9.190;2022-07-23T12:51:01;38.60;1.00
11511;DHT22;5812;48.864;9.190;2022-07-23T12:53:42;38.10;1.00
11511;DHT22;5812;48.864;9.190;2022-07-23T12:56:17;38.00;1.00
11511;DHT22;5812;48.864;9.190;2022-07-23T12:58:51;37.30;1.00
11511;DHT22;5812;48.864;9.190;2022-07-23T13:03:56;36.10;1.00
11511;DHT22;5812;48.864;9.190;2022-07-23T13:06:22;35.60;1.00
11511;DHT22;5812;48.864;9.190;2022-07-23T13:08:48;34.70;1.00
11511;DHT22;5812;48.864;9.190;2022-07-23T13:11:14;33.90;1.00
11511;DHT22;5812;48.864;9.190;2022-07-23T13:13:41;33.20;1.00
11511;DHT22;5812;48.864;9.190;2022-07-23T13:16:07;33.40;1.00
11511;DHT22;5812;48.864;9.190;2022-07-23T13:18:33;34.20;1.00
11511;DHT22;5812;48.864;9.190;2022-07-23T13:20:59;34.50;1.00
11511;DHT22;5812;48.864;9.190;2022-07-23T13:23:25;33.90;1.00
11511;DHT22;5812;48.864;9.190;2022-07-23T13:25:51;34.50;1.00
11511;DHT22;5812;48.864;9.190;2022-07-23T13:28:19;35.30;1.00
11511;DHT22;5812;48.864;9.190;2022-07-23T13:30:46;35.90;1.00
11511;DHT22;5812;48.864;9.190;2022-07-23T13:33:13;36.10;1.00
11511;DHT22;5812;48.864;9.190;2022-07-23T13:35:38;36.20;1.00
11511;DHT22;5812;48.864;9.190;2022-07-23T13:38:05;36.20;1.00
11511;DHT22;5812;48.864;9.190;2022-07-23T13:40:36;36.40;1.00
11511;DHT22;5812;48.864;9.190;2022-07-23T13:43:05;37.20;1.00
11511;DHT22;5812;48.864;9.190;2022-07-23T13:45:31;38.60;1.00
11511;DHT22;5812;48.864;9.190;2022-07-23T13:47:56;39.40;1.00
11511;DHT22;5812;48.864;9.190;2022-07-23T13:50:22;38.50;1.00
11511;DHT22;5812;48.864;9.190;2022-07-23T13:52:48;38.50;1.00
11511;DHT22;5812;48.864;9.190;2022-07-23T13:55:13;38.40;1.00
11511;DHT22;5812;48.864;9.190;2022-07-23T13:57:39;38.20;1.00
11511;DHT22;5812;48.864;9.190;2022-07-23T14:00:06;38.30;1.00
11511;DHT22;5812;48.864;9.190;2022-07-23T14:02:34;38.50;1.00
11511;DHT22;5812;48.864;9.190;2022-07-23T14:05:00;40.10;1.00
11511;DHT22;5812;48.864;9.190;2022-07-23T14:07:25;40.30;1.00
11511;DHT22;5812;48.864;9.190;2022-07-23T14:09:51;41.00;1.00
11511;DHT22;5812;48.864;9.190;2022-07-23T14:12:16;41.90;1.00
11511;DHT22;5812;48.864;9.190;2022-07-23T14:14:42;42.30;1.00
11511;DHT22;5812;48.864;9.190;2022-07-23T14:17:08;42.00;1.00
11511;DHT22;5812;48.864;9.190;2022-07-23T14:19:34;42.30;1.00
11511;DHT22;5812;48.864;9.190;2022-07-23T14:22:00;41.80;1.00
11511;DHT22;5812;48.864;9.190;2022-07-23T14:24:26;41.20;1.00
11511;DHT22;5812;48.864;9.190;2022-07-23T14:26:51;41.20;1.00
11511;DHT22;5812;48.864;9.190;2022-07-23T14:29:17;41.30;1.00
11511;DHT22;5812;48.864;9.190;2022-07-23T14:31:42;43.00;1.00
11511;DHT22;5812;48.864;9.190;2022-07-23T14:34:08;42.70;1.00
11511;DHT22;5812;48.864;9.190;2022-07-23T14:36:34;41.50;1.00
11511;DHT22;5812;48.864;9.190;2022-07-23T14:39:00;39.50;1.00
11511;DHT22;5812;48.864;9.190;2022-07-23T14:41:26;38.30;1.00
11511;DHT22;5812;48.864;9.190;2022-07-23T14:43:51;36.60;1.00
11511;DHT22;5812;48.864;9.190;2022-07-23T14:46:17;35.20;1.00
11511;DHT22;5812;48.864;9.190;2022-07-23T14:48:42;34.30;1.00
11511;DHT22;5812;48.864;9.190;2022-07-23T14:51:08;33.40;1.00
11511;DHT22;5812;48.864;9.190;2022-07-23T14:53:34;33.00;1.00
11511;DHT22;5812;48.864;9.190;2022-07-23T14:55:59;32.50;1.00
11511;DHT22;5812;48.864;9.190;2022-07-23T14:58:25;32.60;1.00
11511;DHT22;5812;48.864;9.190;2022-07-23T15:00:51;32.40;1.00
11511;DHT22;5812;48.864;9.190;2022-07-23T15:03:17;31.90;1.00
11511;DHT22;5812;48.864;9.190;2022-07-23T15:05:43;31.40;1.00
11511;DHT22;5812;48.864;9.190;2022-07-23T15:08:09;31.30;1.00
11511;DHT22;5812;48.864;9.190;2022-07-23T15:10:34;31.40;1.00
11511;DHT22;5812;48.864;9.190;2022-07-23T15:13:00;31.50;1.00
11511;DHT22;5812;48.864;9.190;2022-07-23T15:15:26;31.50;1.00
11511;DHT22;5812;48.864;9.190;2022-07-23T15:17:51;31.50;1.00
11511;DHT22;5812;48.864;9.190;2022-07-23T15:20:17;31.70;1.00
11511;DHT22;5812;48.864;9.190;2022-07-23T15:22:43;31.60;1.00
11511;DHT22;5812;48.864;9.190;2022-07-23T15:25:11;31.50;1.00
11511;DHT22;5812;48.864;9.190;2022-07-23T15:27:36;31.20;1.00
11511;DHT22;5812;48.864;9.190;2022-07-23T15:30:03;31.10;1.00
11511;DHT22;5812;48.864;9.190;2022-07-23T15:32:29;31.10;1.00
11511;DHT22;5812;48.864;9.190;2022-07-23T15:34:54;31.00;1.00
11511;DHT22;5812;48.864;9.190;2022-07-23T15:37:20;31.00;1.00
11511;DHT22;5812;48.864;9.190;2022-07-23T15:39:48;31.00;1.00
11511;DHT22;5812;48.864;9.190;2022-07-23T15:42:14;31.10;1.00
11511;DHT22;5812;48.864;9.190;2022-07-23T15:44:39;31.30;1.00
11511;DHT22;5812;48.864;9.190;2022-07-23T15:47:11;31.40;1.00
11511;DHT22;5812;48.864;9.190;2022-07-23T15:49:37;31.50;1.00
11511;DHT22;5812;48.864;9.190;2022-07-23T15:52:03;31.30;1.00
11511;DHT22;5812;48.864;9.190;2022-07-23T15:54:28;31.30;1.00
11511;DHT22;5812;48.864;9.190;2022-07-23T15:56:54;31.30;1.00
11511;DHT22;5812;48.864;9.190;2022-07-23T15:59:20;31.50;1.00
11511;DHT22;5812;48.864;9.190;2022-07-23T16:01:45;31.60;1.00
11511;DHT22;5812;48.864;9.190;2022-07-23T16:04:11;32.00;1.00
11511;DHT22;5812;48.864;9.190;2022-07-23T16:06:37;33.10;1.00
11511;DHT22;5812;48.864;9.190;2022-07-23T16:09:03;34.60;1.00
11511;DHT22;5812;48.864;9.190;2022-07-23T16:11:28;35.60;1.00
11511;DHT22;5812;48.864;9.190;2022-07-23T16:13:54;35.70;1.00
11511;DHT22;5812;48.864;9.190;2022-07-23T16:16:20;36.70;1.00
11511;DHT22;5812;48.864;9.190;2022-07-23T16:18:47;37.40;1.00
11511;DHT22;5812;48.864;9.190;2022-07-23T16:21:16;37.10;1.00
11511;DHT22;5812;48.864;9.190;2022-07-23T16:23:42;35.90;1.00
11511;DHT22;5812;48.864;9.190;2022-07-23T16:26:08;35.90;1.00
11511;DHT22;5812;48.864;9.190;2022-07-23T16:28:34;36.50;1.00
11511;DHT22;5812;48.864;9.190;2022-07-23T16:31:00;36.90;1.00